sensor_id;sensor_type;location;lat;lon;timestamp;P1;durP1;ratioP1;P2;durP2;ratioP2
10845;SDS011;5476;51.540;7.186;2023-03-04T00:02:21;13.73;;;4.20;;
10845;SDS011;5476;51.540;7.186;2023-03-04T00:04:49;12.97;;;3.50;;
10845;SDS011;5476;51.540;7.186;2023-03-04T00:07:16;15.50;;;4.57;;
10845;SDS011;5476;51.540;7.186;2023-03-04T00:09:43;14.97;;;3.90;;
10845;SDS011;5476;51.540;7.186;2023-03-04T00:12:11;10.23;;;3.60;;
10845;SDS011;5476;51.540;7.186;2023-03-04T00:14:38;13.37;;;3.40;;
10845;SDS011;5476;51.540;7.186;2023-03-04T00:17:07;16.57;;;3.57;;
10845;SDS011;5476;51.540;7.186;2023-03-04T00:19:34;15.17;;;3.90;;
10845;SDS011;5476;51.540;7.186;2023-03-04T00:22:02;12.47;;;3.30;;
10845;SDS011;5476;51.540;7.186;2023-03-04T00:24:29;13.73;;;4.37;;
10845;SDS011;5476;51.540;7.186;2023-03-04T00:26:57;14.50;;;3.63;;
10845;SDS011;5476;51.540;7.186;2023-03-04T00:29:24;14.40;;;5.00;;
10845;SDS011;5476;51.540;7.186;2023-03-04T00:31:51;12.23;;;3.93;;
10845;SDS011;5476;51.540;7.186;2023-03-04T00:34:20;17.23;;;4.03;;
10845;SDS011;5476;51.540;7.186;2023-03-04T00:36:47;10.97;;;3.30;;
10845;SDS011;5476;51.540;7.186;2023-03-04T00:39:14;13.90;;;3.80;;
10845;SDS011;5476;51.540;7.186;2023-03-04T00:41:41;16.33;;;4.27;;
10845;SDS011;5476;51.540;7.186;2023-03-04T00:44:08;13.23;;;4.00;;
10845;SDS011;5476;51.540;7.186;2023-03-04T00:46:36;8.07;;;3.40;;
10845;SDS011;5476;51.540;7.186;2023-03-04T00:49:09;12.43;;;3.67;;
10845;SDS011;5476;51.540;7.186;2023-03-04T00:51:37;16.33;;;4.07;;
10845;SDS011;5476;51.540;7.186;2023-03-04T00:54:05;11.33;;;3.60;;
10845;SDS011;5476;51.540;7.186;2023-03-04T00:56:32;13.40;;;4.20;;
10845;SDS011;5476;51.540;7.186;2023-03-04T00:58:59;20.17;;;4.90;;
10845;SDS011;5476;51.540;7.186;2023-03-04T01:01:26;11.80;;;3.63;;
10845;SDS011;5476;51.540;7.186;2023-03-04T01:03:53;13.00;;;4.17;;
10845;SDS011;5476;51.540;7.186;2023-03-04T01:06:21;17.87;;;4.13;;
10845;SDS011;5476;51.540;7.186;2023-03-04T01:08:49;12.63;;;4.23;;
10845;SDS011;5476;51.540;7.186;2023-03-04T01:11:17;14.87;;;3.70;;
10845;SDS011;5476;51.540;7.186;2023-03-04T01:13:44;16.67;;;3.87;;
10845;SDS011;5476;51.540;7.186;2023-03-04T01:16:11;12.90;;;3.70;;
10845;SDS011;5476;51.540;7.186;2023-03-04T01:18:39;11.47;;;3.60;;
10845;SDS011;5476;51.540;7.186;2023-03-04T01:21:06;11.93;;;3.93;;
10845;SDS011;5476;51.540;7.186;2023-03-04T01:23:33;15.73;;;3.57;;
10845;SDS011;5476;51.540;7.186;2023-03-04T01:26:02;14.87;;;3.90;;
10845;SDS011;5476;51.540;7.186;2023-03-04T01:28:29;14.63;;;4.67;;
10845;SDS011;5476;51.540;7.186;2023-03-04T01:30:59;13.53;;;4.53;;
10845;SDS011;5476;51.540;7.186;2023-03-04T01:33:27;15.17;;;4.87;;
10845;SDS011;5476;51.540;7.186;2023-03-04T01:35:54;16.10;;;4.53;;
10845;SDS011;5476;51.540;7.186;2023-03-04T01:38:22;13.47;;;4.03;;
10845;SDS011;5476;51.540;7.186;2023-03-04T01:40:49;13.77;;;4.20;;
10845;SDS011;5476;51.540;7.186;2023-03-04T01:43:20;15.57;;;3.77;;
10845;SDS011;5476;51.540;7.186;2023-03-04T01:45:47;16.33;;;4.03;;
10845;SDS011;5476;51.540;7.186;2023-03-04T01:48:15;14.80;;;3.93;;
10845;SDS011;5476;51.540;7.186;2023-03-04T01:50:44;12.97;;;3.43;;
10845;SDS011;5476;51.540;7.186;2023-03-04T01:53:14;12.63;;;3.87;;
10845;SDS011;5476;51.540;7.186;2023-03-04T01:55:43;12.30;;;3.17;;
10845;SDS011;5476;51.540;7.186;2023-03-04T01:58:10;15.17;;;3.50;;
10845;SDS011;5476;51.540;7.186;2023-03-04T02:00:39;11.43;;;3.60;;
10845;SDS011;5476;51.540;7.186;2023-03-04T02:03:10;9.07;;;3.67;;
10845;SDS011;5476;51.540;7.186;2023-03-04T02:05:39;17.37;;;3.97;;
10845;SDS011;5476;51.540;7.186;2023-03-04T02:08:08;10.37;;;3.53;;
10845;SDS011;5476;51.540;7.186;2023-03-04T02:10:35;13.83;;;3.73;;
10845;SDS011;5476;51.540;7.186;2023-03-04T02:13:02;16.13;;;4.00;;
10845;SDS011;5476;51.540;7.186;2023-03-04T02:15:30;12.70;;;3.33;;
10845;SDS011;5476;51.540;7.186;2023-03-04T02:17:59;13.23;;;3.47;;
10845;SDS011;5476;51.540;7.186;2023-03-04T02:23:14;14.60;;;3.67;;
10845;SDS011;5476;51.540;7.186;2023-03-04T02:25:43;16.73;;;5.53;;
10845;SDS011;5476;51.540;7.186;2023-03-04T02:28:12;20.53;;;5.43;;
10845;SDS011;5476;51.540;7.186;2023-03-04T02:30:40;16.17;;;4.47;;
10845;SDS011;5476;51.540;7.186;2023-03-04T02:33:09;12.67;;;4.33;;
10845;SDS011;5476;51.540;7.186;2023-03-04T02:35:39;14.67;;;4.13;;
10845;SDS011;5476;51.540;7.186;2023-03-04T02:38:07;14.47;;;4.07;;
10845;SDS011;5476;51.540;7.186;2023-03-04T02:40:35;16.07;;;3.63;;
10845;SDS011;5476;51.540;7.186;2023-03-04T02:43:02;13.33;;;4.07;;
10845;SDS011;5476;51.540;7.186;2023-03-04T02:45:33;17.37;;;3.63;;
10845;SDS011;5476;51.540;7.186;2023-03-04T02:48:01;12.40;;;4.00;;
10845;SDS011;5476;51.540;7.186;2023-03-04T02:50:32;17.27;;;3.67;;
10845;SDS011;5476;51.540;7.186;2023-03-04T02:53:00;15.13;;;3.67;;
10845;SDS011;5476;51.540;7.186;2023-03-04T02:55:27;8.93;;;3.27;;
10845;SDS011;5476;51.540;7.186;2023-03-04T02:57:54;12.83;;;3.80;;
10845;SDS011;5476;51.540;7.186;2023-03-04T03:00:21;11.20;;;3.13;;
10845;SDS011;5476;51.540;7.186;2023-03-04T03:02:50;13.23;;;3.73;;
10845;SDS011;5476;51.540;7.186;2023-03-04T03:05:17;9.33;;;3.17;;
10845;SDS011;5476;51.540;7.186;2023-03-04T03:07:45;12.73;;;3.07;;
10845;SDS011;5476;51.540;7.186;2023-03-04T03:10:12;16.90;;;3.07;;
10845;SDS011;5476;51.540;7.186;2023-03-04T03:12:39;11.67;;;3.07;;
10845;SDS011;5476;51.540;7.186;2023-03-04T03:15:06;18.10;;;3.90;;
10845;SDS011;5476;51.540;7.186;2023-03-04T03:17:34;12.13;;;3.30;;
10845;SDS011;5476;51.540;7.186;2023-03-04T03:20:03;16.40;;;3.27;;
10845;SDS011;5476;51.540;7.186;2023-03-04T03:22:30;16.43;;;3.37;;
10845;SDS011;5476;51.540;7.186;2023-03-04T03:24:57;17.67;;;4.27;;
10845;SDS011;5476;51.540;7.186;2023-03-04T03:27:24;12.07;;;3.67;;
10845;SDS011;5476;51.540;7.186;2023-03-04T03:29:51;12.60;;;3.50;;
10845;SDS011;5476;51.540;7.186;2023-03-04T03:32:19;13.63;;;3.43;;
10845;SDS011;5476;51.540;7.186;2023-03-04T03:34:46;12.17;;;3.30;;
10845;SDS011;5476;51.540;7.186;2023-03-04T03:37:15;12.73;;;3.00;;
10845;SDS011;5476;51.540;7.186;2023-03-04T03:39:42;12.77;;;2.73;;
10845;SDS011;5476;51.540;7.186;2023-03-04T03:42:09;11.20;;;2.90;;
10845;SDS011;5476;51.540;7.186;2023-03-04T03:44:36;11.30;;;3.20;;
10845;SDS011;5476;51.540;7.186;2023-03-04T03:47:03;11.40;;;3.13;;
10845;SDS011;5476;51.540;7.186;2023-03-04T03:49:31;16.20;;;3.17;;
10845;SDS011;5476;51.540;7.186;2023-03-04T03:51:58;9.53;;;2.90;;
10845;SDS011;5476;51.540;7.186;2023-03-04T03:54:26;7.50;;;2.70;;
10845;SDS011;5476;51.540;7.186;2023-03-04T03:56:53;11.63;;;2.77;;
10845;SDS011;5476;51.540;7.186;2023-03-04T03:59:21;11.30;;;3.13;;
10845;SDS011;5476;51.540;7.186;2023-03-04T04:01:48;13.77;;;3.37;;
10845;SDS011;5476;51.540;7.186;2023-03-04T04:04:16;18.17;;;3.13;;
10845;SDS011;5476;51.540;7.186;2023-03-04T04:06:43;8.10;;;2.50;;
10845;SDS011;5476;51.540;7.186;2023-03-04T04:09:10;11.13;;;3.40;;
10845;SDS011;5476;51.540;7.186;2023-03-04T04:11:39;12.30;;;2.60;;
10845;SDS011;5476;51.540;7.186;2023-03-04T04:14:07;9.97;;;2.40;;
10845;SDS011;5476;51.540;7.186;2023-03-04T04:16:34;12.60;;;2.47;;
10845;SDS011;5476;51.540;7.186;2023-03-04T04:19:02;4.90;;;1.83;;
10845;SDS011;5476;51.540;7.186;2023-03-04T04:21:29;7.67;;;2.33;;
10845;SDS011;5476;51.540;7.186;2023-03-04T04:23:56;11.47;;;2.77;;
10845;SDS011;5476;51.540;7.186;2023-03-04T04:26:23;9.03;;;2.60;;
10845;SDS011;5476;51.540;7.186;2023-03-04T04:28:52;8.27;;;2.43;;
10845;SDS011;5476;51.540;7.186;2023-03-04T04:31:19;10.70;;;3.23;;
10845;SDS011;5476;51.540;7.186;2023-03-04T04:33:46;4.80;;;2.00;;
10845;SDS011;5476;51.540;7.186;2023-03-04T04:36:14;11.13;;;2.70;;
10845;SDS011;5476;51.540;7.186;2023-03-04T04:38:41;16.63;;;2.90;;
10845;SDS011;5476;51.540;7.186;2023-03-04T04:41:12;8.43;;;2.40;;
10845;SDS011;5476;51.540;7.186;2023-03-04T04:43:45;13.67;;;2.90;;
10845;SDS011;5476;51.540;7.186;2023-03-04T04:46:13;10.17;;;2.50;;
10845;SDS011;5476;51.540;7.186;2023-03-04T04:48:41;12.17;;;2.60;;
10845;SDS011;5476;51.540;7.186;2023-03-04T04:51:08;7.73;;;3.10;;
10845;SDS011;5476;51.540;7.186;2023-03-04T04:53:36;12.13;;;3.10;;
10845;SDS011;5476;51.540;7.186;2023-03-04T04:56:10;8.03;;;2.50;;
10845;SDS011;5476;51.540;7.186;2023-03-04T04:58:37;10.37;;;2.73;;
10845;SDS011;5476;51.540;7.186;2023-03-04T05:01:04;7.23;;;2.43;;
10845;SDS011;5476;51.540;7.186;2023-03-04T05:03:33;9.37;;;2.50;;
10845;SDS011;5476;51.540;7.186;2023-03-04T05:06:01;9.90;;;2.90;;
10845;SDS011;5476;51.540;7.186;2023-03-04T05:08:28;9.83;;;2.50;;
10845;SDS011;5476;51.540;7.186;2023-03-04T05:10:55;9.27;;;2.17;;
10845;SDS011;5476;51.540;7.186;2023-03-04T05:13:22;9.77;;;2.43;;
10845;SDS011;5476;51.540;7.186;2023-03-04T05:15:51;11.67;;;2.50;;
10845;SDS011;5476;51.540;7.186;2023-03-04T05:18:19;9.30;;;2.50;;
10845;SDS011;5476;51.540;7.186;2023-03-04T05:20:57;10.27;;;2.93;;
10845;SDS011;5476;51.540;7.186;2023-03-04T05:23:25;11.83;;;3.13;;
10845;SDS011;5476;51.540;7.186;2023-03-04T05:25:53;9.87;;;2.10;;
10845;SDS011;5476;51.540;7.186;2023-03-04T05:28:21;11.13;;;2.47;;
10845;SDS011;5476;51.540;7.186;2023-03-04T05:30:48;10.40;;;2.80;;
10845;SDS011;5476;51.540;7.186;2023-03-04T05:33:16;9.27;;;2.37;;
10845;SDS011;5476;51.540;7.186;2023-03-04T05:35:43;10.30;;;2.07;;
10845;SDS011;5476;51.540;7.186;2023-03-04T05:38:14;9.00;;;2.47;;
10845;SDS011;5476;51.540;7.186;2023-03-04T05:40:41;13.73;;;2.33;;
10845;SDS011;5476;51.540;7.186;2023-03-04T05:43:09;9.63;;;2.40;;
10845;SDS011;5476;51.540;7.186;2023-03-04T05:45:36;11.23;;;3.87;;
10845;SDS011;5476;51.540;7.186;2023-03-04T05:48:04;7.90;;;2.10;;
10845;SDS011;5476;51.540;7.186;2023-03-04T05:50:31;9.03;;;2.43;;
10845;SDS011;5476;51.540;7.186;2023-03-04T05:52:59;8.90;;;2.60;;
10845;SDS011;5476;51.540;7.186;2023-03-04T05:55:27;12.87;;;2.73;;
10845;SDS011;5476;51.540;7.186;2023-03-04T05:57:54;9.93;;;2.50;;
10845;SDS011;5476;51.540;7.186;2023-03-04T06:00:22;10.87;;;2.30;;
10845;SDS011;5476;51.540;7.186;2023-03-04T06:02:49;5.83;;;2.10;;
10845;SDS011;5476;51.540;7.186;2023-03-04T06:05:16;15.60;;;2.90;;
10845;SDS011;5476;51.540;7.186;2023-03-04T06:07:43;8.47;;;2.20;;
10845;SDS011;5476;51.540;7.186;2023-03-04T06:10:11;13.23;;;2.80;;
10845;SDS011;5476;51.540;7.186;2023-03-04T06:12:41;10.33;;;1.87;;
10845;SDS011;5476;51.540;7.186;2023-03-04T06:15:09;9.03;;;2.80;;
10845;SDS011;5476;51.540;7.186;2023-03-04T06:17:37;8.43;;;2.40;;
10845;SDS011;5476;51.540;7.186;2023-03-04T06:20:04;7.73;;;2.70;;
10845;SDS011;5476;51.540;7.186;2023-03-04T06:22:32;14.83;;;2.40;;
10845;SDS011;5476;51.540;7.186;2023-03-04T06:25:00;13.47;;;2.40;;
10845;SDS011;5476;51.540;7.186;2023-03-04T06:27:27;12.10;;;2.20;;
10845;SDS011;5476;51.540;7.186;2023-03-04T06:29:56;9.73;;;2.70;;
10845;SDS011;5476;51.540;7.186;2023-03-04T06:32:23;13.07;;;2.80;;
10845;SDS011;5476;51.540;7.186;2023-03-04T06:34:50;10.00;;;2.73;;
10845;SDS011;5476;51.540;7.186;2023-03-04T06:37:17;11.83;;;2.63;;
10845;SDS011;5476;51.540;7.186;2023-03-04T06:39:44;8.17;;;2.43;;
10845;SDS011;5476;51.540;7.186;2023-03-04T06:42:12;7.87;;;2.23;;
10845;SDS011;5476;51.540;7.186;2023-03-04T06:44:39;9.20;;;2.30;;
10845;SDS011;5476;51.540;7.186;2023-03-04T06:47:07;8.77;;;2.43;;
10845;SDS011;5476;51.540;7.186;2023-03-04T06:49:35;11.10;;;2.40;;
10845;SDS011;5476;51.540;7.186;2023-03-04T06:52:02;8.67;;;2.23;;
10845;SDS011;5476;51.540;7.186;2023-03-04T06:54:29;11.37;;;2.60;;
10845;SDS011;5476;51.540;7.186;2023-03-04T06:56:56;7.90;;;2.63;;
10845;SDS011;5476;51.540;7.186;2023-03-04T06:59:24;8.10;;;2.47;;
10845;SDS011;5476;51.540;7.186;2023-03-04T07:01:51;12.43;;;2.53;;
10845;SDS011;5476;51.540;7.186;2023-03-04T07:04:19;8.77;;;2.30;;
10845;SDS011;5476;51.540;7.186;2023-03-04T07:06:47;10.73;;;2.23;;
10845;SDS011;5476;51.540;7.186;2023-03-04T07:09:15;9.70;;;2.63;;
10845;SDS011;5476;51.540;7.186;2023-03-04T07:11:42;7.40;;;2.10;;
10845;SDS011;5476;51.540;7.186;2023-03-04T07:14:09;7.83;;;2.10;;
10845;SDS011;5476;51.540;7.186;2023-03-04T07:16:52;6.17;;;2.20;;
10845;SDS011;5476;51.540;7.186;2023-03-04T07:19:21;7.37;;;2.00;;
10845;SDS011;5476;51.540;7.186;2023-03-04T07:21:48;14.67;;;2.50;;
10845;SDS011;5476;51.540;7.186;2023-03-04T07:24:15;9.83;;;2.20;;
10845;SDS011;5476;51.540;7.186;2023-03-04T07:26:43;12.30;;;2.63;;
10845;SDS011;5476;51.540;7.186;2023-03-04T07:29:10;6.87;;;1.90;;
10845;SDS011;5476;51.540;7.186;2023-03-04T07:31:38;11.83;;;2.47;;
10845;SDS011;5476;51.540;7.186;2023-03-04T07:34:06;10.70;;;2.43;;
10845;SDS011;5476;51.540;7.186;2023-03-04T07:36:35;6.03;;;2.17;;
10845;SDS011;5476;51.540;7.186;2023-03-04T07:39:03;9.80;;;2.20;;
10845;SDS011;5476;51.540;7.186;2023-03-04T07:41:31;10.13;;;2.93;;
10845;SDS011;5476;51.540;7.186;2023-03-04T07:44:00;7.07;;;2.50;;
10845;SDS011;5476;51.540;7.186;2023-03-04T07:46:28;10.20;;;2.10;;
10845;SDS011;5476;51.540;7.186;2023-03-04T07:48:55;8.17;;;1.83;;
10845;SDS011;5476;51.540;7.186;2023-03-04T07:51:23;10.30;;;2.20;;
10845;SDS011;5476;51.540;7.186;2023-03-04T07:53:52;5.10;;;2.23;;
10845;SDS011;5476;51.540;7.186;2023-03-04T07:56:22;4.13;;;1.70;;
10845;SDS011;5476;51.540;7.186;2023-03-04T07:59:01;9.80;;;2.37;;
10845;SDS011;5476;51.540;7.186;2023-03-04T08:01:29;5.50;;;2.47;;
10845;SDS011;5476;51.540;7.186;2023-03-04T08:03:57;7.27;;;2.17;;
10845;SDS011;5476;51.540;7.186;2023-03-04T08:06:24;8.27;;;2.30;;
10845;SDS011;5476;51.540;7.186;2023-03-04T08:08:56;8.30;;;2.40;;
10845;SDS011;5476;51.540;7.186;2023-03-04T08:11:24;8.83;;;2.20;;
10845;SDS011;5476;51.540;7.186;2023-03-04T08:13:51;7.00;;;1.83;;
10845;SDS011;5476;51.540;7.186;2023-03-04T08:16:19;6.30;;;2.43;;
10845;SDS011;5476;51.540;7.186;2023-03-04T08:18:48;5.70;;;1.87;;
10845;SDS011;5476;51.540;7.186;2023-03-04T08:21:16;4.10;;;1.47;;
10845;SDS011;5476;51.540;7.186;2023-03-04T08:23:44;7.47;;;2.03;;
10845;SDS011;5476;51.540;7.186;2023-03-04T08:26:21;5.07;;;2.00;;
10845;SDS011;5476;51.540;7.186;2023-03-04T08:28:49;6.53;;;1.73;;
10845;SDS011;5476;51.540;7.186;2023-03-04T08:31:17;3.43;;;1.50;;
10845;SDS011;5476;51.540;7.186;2023-03-04T08:33:44;4.40;;;1.70;;
10845;SDS011;5476;51.540;7.186;2023-03-04T08:36:12;7.00;;;2.00;;
10845;SDS011;5476;51.540;7.186;2023-03-04T08:38:39;5.57;;;1.87;;
10845;SDS011;5476;51.540;7.186;2023-03-04T08:41:06;6.63;;;2.00;;
10845;SDS011;5476;51.540;7.186;2023-03-04T08:43:35;6.80;;;2.33;;
10845;SDS011;5476;51.540;7.186;2023-03-04T08:46:02;6.57;;;2.17;;
10845;SDS011;5476;51.540;7.186;2023-03-04T08:48:30;8.17;;;2.50;;
10845;SDS011;5476;51.540;7.186;2023-03-04T08:50:57;6.83;;;2.17;;
10845;SDS011;5476;51.540;7.186;2023-03-04T08:53:24;6.57;;;2.70;;
10845;SDS011;5476;51.540;7.186;2023-03-04T08:55:52;7.20;;;2.50;;
10845;SDS011;5476;51.540;7.186;2023-03-04T08:58:19;6.63;;;3.10;;
10845;SDS011;5476;51.540;7.186;2023-03-04T09:00:47;8.40;;;3.27;;
10845;SDS011;5476;51.540;7.186;2023-03-04T09:03:16;7.40;;;3.90;;
10845;SDS011;5476;51.540;7.186;2023-03-04T09:05:44;7.83;;;3.33;;
10845;SDS011;5476;51.540;7.186;2023-03-04T09:08:11;11.57;;;3.83;;
10845;SDS011;5476;51.540;7.186;2023-03-04T09:10:39;11.83;;;4.30;;
10845;SDS011;5476;51.540;7.186;2023-03-04T09:13:06;7.10;;;3.97;;
10845;SDS011;5476;51.540;7.186;2023-03-04T09:15:35;6.47;;;3.93;;
10845;SDS011;5476;51.540;7.186;2023-03-04T09:18:04;10.90;;;4.27;;
10845;SDS011;5476;51.540;7.186;2023-03-04T09:20:31;10.53;;;4.67;;
10845;SDS011;5476;51.540;7.186;2023-03-04T09:22:58;9.90;;;4.20;;
10845;SDS011;5476;51.540;7.186;2023-03-04T09:25:26;8.17;;;3.17;;
10845;SDS011;5476;51.540;7.186;2023-03-04T09:27:53;10.00;;;3.30;;
10845;SDS011;5476;51.540;7.186;2023-03-04T09:30:21;9.07;;;3.63;;
10845;SDS011;5476;51.540;7.186;2023-03-04T09:32:48;6.60;;;2.67;;
10845;SDS011;5476;51.540;7.186;2023-03-04T09:35:17;9.07;;;3.53;;
10845;SDS011;5476;51.540;7.186;2023-03-04T09:37:44;9.80;;;2.97;;
10845;SDS011;5476;51.540;7.186;2023-03-04T09:40:15;4.53;;;2.33;;
10845;SDS011;5476;51.540;7.186;2023-03-04T09:42:44;11.33;;;3.13;;
10845;SDS011;5476;51.540;7.186;2023-03-04T09:45:12;9.53;;;3.90;;
10845;SDS011;5476;51.540;7.186;2023-03-04T09:47:42;9.40;;;2.90;;
10845;SDS011;5476;51.540;7.186;2023-03-04T09:50:10;10.23;;;3.10;;
10845;SDS011;5476;51.540;7.186;2023-03-04T09:52:42;10.93;;;3.57;;
10845;SDS011;5476;51.540;7.186;2023-03-04T09:55:14;7.10;;;2.57;;
10845;SDS011;5476;51.540;7.186;2023-03-04T09:57:46;5.60;;;2.53;;
10845;SDS011;5476;51.540;7.186;2023-03-04T10:00:15;4.90;;;2.70;;
10845;SDS011;5476;51.540;7.186;2023-03-04T10:02:49;8.57;;;2.43;;
10845;SDS011;5476;51.540;7.186;2023-03-04T10:05:21;7.83;;;4.90;;
10845;SDS011;5476;51.540;7.186;2023-03-04T10:07:54;9.37;;;3.33;;
10845;SDS011;5476;51.540;7.186;2023-03-04T10:10:23;9.30;;;3.27;;
10845;SDS011;5476;51.540;7.186;2023-03-04T10:12:52;6.77;;;2.87;;
10845;SDS011;5476;51.540;7.186;2023-03-04T10:15:22;8.47;;;2.63;;
10845;SDS011;5476;51.540;7.186;2023-03-04T10:17:51;9.23;;;2.73;;
10845;SDS011;5476;51.540;7.186;2023-03-04T10:20:21;7.43;;;2.87;;
10845;SDS011;5476;51.540;7.186;2023-03-04T10:22:49;6.47;;;3.20;;
10845;SDS011;5476;51.540;7.186;2023-03-04T10:25:19;7.93;;;3.40;;
10845;SDS011;5476;51.540;7.186;2023-03-04T10:27:48;7.90;;;3.57;;
10845;SDS011;5476;51.540;7.186;2023-03-04T10:30:18;6.67;;;3.40;;
10845;SDS011;5476;51.540;7.186;2023-03-04T10:32:47;8.23;;;4.00;;
10845;SDS011;5476;51.540;7.186;2023-03-04T10:35:15;6.83;;;3.63;;
10845;SDS011;5476;51.540;7.186;2023-03-04T10:37:43;6.60;;;3.90;;
10845;SDS011;5476;51.540;7.186;2023-03-04T10:42:48;9.47;;;3.43;;
10845;SDS011;5476;51.540;7.186;2023-03-04T10:45:19;4.60;;;2.77;;
10845;SDS011;5476;51.540;7.186;2023-03-04T10:47:53;6.83;;;2.63;;
10845;SDS011;5476;51.540;7.186;2023-03-04T10:50:21;7.37;;;2.00;;
10845;SDS011;5476;51.540;7.186;2023-03-04T10:52:49;4.87;;;2.03;;
10845;SDS011;5476;51.540;7.186;2023-03-04T10:55:18;3.83;;;2.40;;
10845;SDS011;5476;51.540;7.186;2023-03-04T10:57:48;6.53;;;2.10;;
10845;SDS011;5476;51.540;7.186;2023-03-04T11:00:24;4.90;;;2.03;;
10845;SDS011;5476;51.540;7.186;2023-03-04T11:02:52;5.13;;;2.30;;
10845;SDS011;5476;51.540;7.186;2023-03-04T11:05:40;5.73;;;2.23;;
10845;SDS011;5476;51.540;7.186;2023-03-04T11:08:14;4.77;;;2.37;;
10845;SDS011;5476;51.540;7.186;2023-03-04T11:10:42;3.83;;;1.77;;
10845;SDS011;5476;51.540;7.186;2023-03-04T11:13:14;4.37;;;1.90;;
10845;SDS011;5476;51.540;7.186;2023-03-04T11:15:48;6.80;;;2.57;;
10845;SDS011;5476;51.540;7.186;2023-03-04T11:18:15;4.93;;;2.40;;
10845;SDS011;5476;51.540;7.186;2023-03-04T11:20:43;6.13;;;2.60;;
10845;SDS011;5476;51.540;7.186;2023-03-04T11:23:13;6.17;;;3.30;;
10845;SDS011;5476;51.540;7.186;2023-03-04T11:25:45;3.37;;;2.30;;
10845;SDS011;5476;51.540;7.186;2023-03-04T11:28:15;3.50;;;2.43;;
10845;SDS011;5476;51.540;7.186;2023-03-04T11:30:44;5.80;;;2.37;;
10845;SDS011;5476;51.540;7.186;2023-03-04T11:33:16;5.47;;;2.10;;
10845;SDS011;5476;51.540;7.186;2023-03-04T11:35:49;7.13;;;2.60;;
10845;SDS011;5476;51.540;7.186;2023-03-04T11:38:20;4.03;;;2.10;;
10845;SDS011;5476;51.540;7.186;2023-03-04T11:40:49;4.80;;;2.33;;
10845;SDS011;5476;51.540;7.186;2023-03-04T11:43:19;7.23;;;2.77;;
10845;SDS011;5476;51.540;7.186;2023-03-04T11:45:58;5.33;;;3.60;;
10845;SDS011;5476;51.540;7.186;2023-03-04T11:48:32;4.83;;;3.53;;
10845;SDS011;5476;51.540;7.186;2023-03-04T11:51:02;5.97;;;2.97;;
10845;SDS011;5476;51.540;7.186;2023-03-04T11:53:36;5.90;;;2.67;;
10845;SDS011;5476;51.540;7.186;2023-03-04T11:56:12;4.43;;;3.27;;
10845;SDS011;5476;51.540;7.186;2023-03-04T12:01:27;5.33;;;2.73;;
10845;SDS011;5476;51.540;7.186;2023-03-04T12:06:43;6.30;;;2.50;;
10845;SDS011;5476;51.540;7.186;2023-03-04T12:09:20;7.37;;;2.60;;
10845;SDS011;5476;51.540;7.186;2023-03-04T12:11:54;8.27;;;2.93;;
10845;SDS011;5476;51.540;7.186;2023-03-04T12:14:27;4.37;;;2.40;;
10845;SDS011;5476;51.540;7.186;2023-03-04T12:17:10;5.07;;;2.20;;
10845;SDS011;5476;51.540;7.186;2023-03-04T12:19:42;6.17;;;2.97;;
10845;SDS011;5476;51.540;7.186;2023-03-04T12:22:17;6.60;;;2.17;;
10845;SDS011;5476;51.540;7.186;2023-03-04T12:25:06;7.83;;;2.40;;
10845;SDS011;5476;51.540;7.186;2023-03-04T12:27:39;4.73;;;2.40;;
10845;SDS011;5476;51.540;7.186;2023-03-04T12:30:15;4.20;;;2.57;;
10845;SDS011;5476;51.540;7.186;2023-03-04T12:32:52;5.00;;;2.70;;
10845;SDS011;5476;51.540;7.186;2023-03-04T12:35:23;8.53;;;3.07;;
10845;SDS011;5476;51.540;7.186;2023-03-04T12:38:01;5.07;;;3.30;;
10845;SDS011;5476;51.540;7.186;2023-03-04T12:40:37;5.63;;;2.93;;
10845;SDS011;5476;51.540;7.186;2023-03-04T12:45:49;8.20;;;2.87;;
10845;SDS011;5476;51.540;7.186;2023-03-04T12:48:27;5.03;;;3.00;;
10845;SDS011;5476;51.540;7.186;2023-03-04T12:50:58;4.37;;;3.10;;
10845;SDS011;5476;51.540;7.186;2023-03-04T12:53:31;3.20;;;2.60;;
10845;SDS011;5476;51.540;7.186;2023-03-04T12:55:59;5.20;;;2.60;;
10845;SDS011;5476;51.540;7.186;2023-03-04T12:58:28;4.87;;;2.77;;
10845;SDS011;5476;51.540;7.186;2023-03-04T13:00:58;2.40;;;1.83;;
10845;SDS011;5476;51.540;7.186;2023-03-04T13:03:32;2.73;;;1.57;;
10845;SDS011;5476;51.540;7.186;2023-03-04T13:06:05;5.03;;;1.97;;
10845;SDS011;5476;51.540;7.186;2023-03-04T13:08:37;4.13;;;1.63;;
10845;SDS011;5476;51.540;7.186;2023-03-04T13:14:05;5.27;;;2.80;;
10845;SDS011;5476;51.540;7.186;2023-03-04T13:16:34;6.27;;;3.53;;
10845;SDS011;5476;51.540;7.186;2023-03-04T13:19:04;5.43;;;3.67;;
10845;SDS011;5476;51.540;7.186;2023-03-04T13:21:52;6.93;;;3.80;;
10845;SDS011;5476;51.540;7.186;2023-03-04T13:30:38;7.77;;;3.83;;
10845;SDS011;5476;51.540;7.186;2023-03-04T13:35:48;5.73;;;3.10;;
10845;SDS011;5476;51.540;7.186;2023-03-04T13:38:20;5.90;;;3.23;;
10845;SDS011;5476;51.540;7.186;2023-03-04T13:43:37;7.10;;;3.23;;
10845;SDS011;5476;51.540;7.186;2023-03-04T13:48:58;3.90;;;2.70;;
10845;SDS011;5476;51.540;7.186;2023-03-04T13:51:26;4.20;;;2.70;;
10845;SDS011;5476;51.540;7.186;2023-03-04T13:53:56;6.70;;;3.00;;
10845;SDS011;5476;51.540;7.186;2023-03-04T13:56:32;4.70;;;2.93;;
10845;SDS011;5476;51.540;7.186;2023-03-04T14:01:49;5.70;;;3.30;;
10845;SDS011;5476;51.540;7.186;2023-03-04T14:04:20;5.43;;;3.57;;
10845;SDS011;5476;51.540;7.186;2023-03-04T14:06:49;7.63;;;3.40;;
10845;SDS011;5476;51.540;7.186;2023-03-04T14:09:20;5.77;;;3.67;;
10845;SDS011;5476;51.540;7.186;2023-03-04T14:11:47;6.37;;;3.70;;
10845;SDS011;5476;51.540;7.186;2023-03-04T14:14:17;5.47;;;3.53;;
10845;SDS011;5476;51.540;7.186;2023-03-04T14:16:46;4.07;;;2.70;;
10845;SDS011;5476;51.540;7.186;2023-03-04T14:19:16;4.97;;;1.90;;
10845;SDS011;5476;51.540;7.186;2023-03-04T14:21:44;4.27;;;1.70;;
10845;SDS011;5476;51.540;7.186;2023-03-04T14:24:13;3.80;;;1.97;;
10845;SDS011;5476;51.540;7.186;2023-03-04T14:26:43;4.77;;;1.97;;
10845;SDS011;5476;51.540;7.186;2023-03-04T14:29:20;3.73;;;1.60;;
10845;SDS011;5476;51.540;7.186;2023-03-04T14:31:47;3.10;;;1.60;;
10845;SDS011;5476;51.540;7.186;2023-03-04T14:34:16;6.03;;;2.10;;
10845;SDS011;5476;51.540;7.186;2023-03-04T14:36:47;4.23;;;1.37;;
10845;SDS011;5476;51.540;7.186;2023-03-04T14:39:24;5.07;;;1.47;;
10845;SDS011;5476;51.540;7.186;2023-03-04T14:41:53;4.63;;;1.87;;
10845;SDS011;5476;51.540;7.186;2023-03-04T14:44:28;2.47;;;1.63;;
10845;SDS011;5476;51.540;7.186;2023-03-04T14:47:01;4.33;;;1.37;;
10845;SDS011;5476;51.540;7.186;2023-03-04T14:49:33;5.10;;;1.47;;
10845;SDS011;5476;51.540;7.186;2023-03-04T14:52:02;3.53;;;1.80;;
10845;SDS011;5476;51.540;7.186;2023-03-04T14:54:33;5.23;;;1.63;;
10845;SDS011;5476;51.540;7.186;2023-03-04T14:57:19;6.37;;;1.70;;
10845;SDS011;5476;51.540;7.186;2023-03-04T14:59:50;5.93;;;2.17;;
10845;SDS011;5476;51.540;7.186;2023-03-04T15:02:19;4.40;;;1.83;;
10845;SDS011;5476;51.540;7.186;2023-03-04T15:04:47;3.63;;;1.90;;
10845;SDS011;5476;51.540;7.186;2023-03-04T15:07:16;5.03;;;1.83;;
10845;SDS011;5476;51.540;7.186;2023-03-04T15:09:50;3.53;;;1.70;;
10845;SDS011;5476;51.540;7.186;2023-03-04T15:12:26;9.23;;;1.97;;
10845;SDS011;5476;51.540;7.186;2023-03-04T15:14:54;7.37;;;2.30;;
10845;SDS011;5476;51.540;7.186;2023-03-04T15:17:29;9.57;;;2.70;;
10845;SDS011;5476;51.540;7.186;2023-03-04T15:20:00;10.33;;;2.60;;
10845;SDS011;5476;51.540;7.186;2023-03-04T15:22:28;3.80;;;1.80;;
10845;SDS011;5476;51.540;7.186;2023-03-04T15:24:55;8.13;;;2.30;;
10845;SDS011;5476;51.540;7.186;2023-03-04T15:27:23;6.23;;;2.57;;
10845;SDS011;5476;51.540;7.186;2023-03-04T15:29:52;8.97;;;2.73;;
10845;SDS011;5476;51.540;7.186;2023-03-04T15:32:23;7.20;;;2.00;;
10845;SDS011;5476;51.540;7.186;2023-03-04T15:34:50;7.37;;;2.10;;
10845;SDS011;5476;51.540;7.186;2023-03-04T15:37:19;7.83;;;2.10;;
10845;SDS011;5476;51.540;7.186;2023-03-04T15:39:46;4.93;;;1.97;;
10845;SDS011;5476;51.540;7.186;2023-03-04T15:42:14;7.63;;;1.77;;